Time;durP1;ratioP1;P1;durP2;ratioP2;P2;SDS_P1;SDS_P2;PMS_P1;PMS_P2;Temp;Humidity;BMP_temperature;BMP_pressure;BME280_temperature;BME280_humidity;BME280_pressure;Samples;Min_cycle;Max_cycle;Signal;HPM_P1;HPM_P2
2023/12/19 00:01:48;;;;;;;1.30;0.70;;;;;;;16.82;38.98;97897.53;10405615;28;20280;-31
2023/12/19 00:06:48;;;;;;;0.75;0.60;;;;;;;16.83;38.85;97903.44;10405922;28;20033;-30
2023/12/19 00:11:49;;;;;;;1.00;0.80;;;;;;;16.84;38.84;97900.09;10409110;28;20025;-31
2023/12/19 00:16:49;;;;;;;1.30;0.87;;;;;;;16.86;38.80;97890.88;10402805;28;20495;-30
2023/12/19 00:21:49;;;;;;;0.67;0.67;;;;;;;16.87;38.63;97890.91;10408176;28;20041;-30
2023/12/19 00:26:50;;;;;;;1.48;0.70;;;;;;;16.88;38.43;97869.84;10409262;28;20048;-30
2023/12/19 00:31:51;;;;;;;1.00;0.80;;;;;;;16.89;38.75;97853.03;10402049;28;20037;-30
2023/12/19 00:36:52;;;;;;;0.60;0.57;;;;;;;16.82;38.70;97841.88;10401597;28;20041;-30
2023/12/19 00:41:52;;;;;;;2.90;0.77;;;;;;;16.83;38.75;97848.63;10408450;28;20403;-31
2023/12/19 00:46:52;;;;;;;0.97;0.57;;;;;;;16.90;38.57;97860.63;10402668;28;20432;-30
2023/12/19 00:51:53;;;;;;;1.30;0.67;;;;;;;16.89;38.81;97853.03;10400647;28;20036;-30
2023/12/19 00:56:53;;;;;;;1.13;0.60;;;;;;;16.88;38.92;97829.38;10407917;28;20029;-30
2023/12/19 01:01:53;;;;;;;1.43;0.70;;;;;;;16.87;38.90;97814.16;10401690;28;20053;-30
2023/12/19 01:06:53;;;;;;;0.83;0.50;;;;;;;16.89;38.85;97812.56;10401138;28;20581;-30
2023/12/19 01:11:54;;;;;;;1.37;0.73;;;;;;;16.88;38.70;97811.69;10404586;28;20036;-30
2023/12/19 01:16:54;;;;;;;0.70;0.63;;;;;;;16.87;38.80;97827.69;10403670;28;20099;-30
2023/12/19 01:21:54;;;;;;;0.80;0.60;;;;;;;16.91;38.89;97821.03;10405894;28;20033;-30
2023/12/19 01:26:55;;;;;;;1.17;0.60;;;;;;;16.88;38.63;97815.88;10413973;28;20068;-30
2023/12/19 01:31:55;;;;;;;1.10;0.63;;;;;;;16.87;38.62;97804.91;10401767;28;20567;-32
2023/12/19 01:36:58;;;;;;;0.68;0.52;;;;;;;16.87;38.65;97809.97;10406243;28;20045;-30
2023/12/19 01:41:58;;;;;;;0.90;0.73;;;;;;;16.86;39.14;97807.41;10405788;28;20083;-31
2023/12/19 01:46:59;;;;;;;0.80;0.55;;;;;;;16.87;38.71;97799.00;10401853;28;20026;-30
2023/12/19 01:51:59;;;;;;;0.70;0.50;;;;;;;16.85;38.65;97818.34;10398779;28;20492;-30
2023/12/19 01:57:00;;;;;;;0.70;0.57;;;;;;;16.88;38.79;97815.88;10411191;28;20082;-30
2023/12/19 02:02:00;;;;;;;1.75;0.50;;;;;;;16.88;38.57;97831.03;10415143;28;20113;-29
2023/12/19 02:07:01;;;;;;;0.63;0.33;;;;;;;16.87;38.64;97834.41;10400819;28;20041;-30
2023/12/19 02:12:01;;;;;;;0.50;0.40;;;;;;;16.87;38.64;97832.72;10409880;28;20048;-30
2023/12/19 02:17:02;;;;;;;0.38;0.38;;;;;;;16.86;38.82;97827.63;10399310;28;20033;-30
2023/12/19 02:22:02;;;;;;;1.10;0.52;;;;;;;16.87;38.65;97817.56;10412482;28;20037;-30
2023/12/19 02:27:03;;;;;;;0.52;0.40;;;;;;;16.86;38.81;97807.41;10412180;28;20033;-30
2023/12/19 02:32:04;;;;;;;1.10;0.63;;;;;;;16.85;38.85;97787.97;10402577;28;20044;-30
2023/12/19 02:37:04;;;;;;;0.52;0.47;;;;;;;16.85;38.72;97785.47;10401261;28;20064;-33
2023/12/19 02:42:04;;;;;;;0.33;0.30;;;;;;;16.82;38.74;97760.09;10404243;28;20037;-30
2023/12/19 02:47:05;;;;;;;0.60;0.50;;;;;;;16.87;38.75;97773.69;10403470;28;20107;-30
2023/12/19 02:52:05;;;;;;;0.63;0.40;;;;;;;16.86;38.71;97766.94;10399162;28;20553;-30
2023/12/19 02:57:05;;;;;;;0.20;0.20;;;;;;;16.86;38.70;97752.63;10406151;28;20041;-30
2023/12/19 03:02:06;;;;;;;0.53;0.40;;;;;;;16.84;38.89;97759.28;10401941;28;20029;-32
2023/12/19 03:07:09;;;;;;;0.70;0.40;;;;;;;16.84;38.96;97749.19;10402568;28;20299;-31
2023/12/19 03:12:09;;;;;;;0.50;0.40;;;;;;;16.83;38.44;97736.53;10405019;28;20790;-30
2023/12/19 03:17:10;;;;;;;0.30;0.30;;;;;;;16.82;38.66;97737.34;10412410;28;20042;-30
2023/12/19 03:22:10;;;;;;;1.05;0.55;;;;;;;16.81;38.69;97728.06;10409826;28;20034;-30
2023/12/19 03:27:11;;;;;;;6.80;0.60;;;;;;;16.83;38.86;97731.47;10410864;28;20052;-30
2023/12/19 03:32:11;;;;;;;0.47;0.37;;;;;;;16.84;39.07;97725.59;10407330;28;20508;-34
2023/12/19 03:37:12;;;;;;;0.47;0.38;;;;;;;16.86;38.72;97741.63;10407043;28;20029;-30
2023/12/19 03:42:12;;;;;;;1.13;0.52;;;;;;;16.86;38.98;97732.38;10406992;28;20121;-32
2023/12/19 03:47:13;;;;;;;0.20;0.20;;;;;;;16.81;38.94;97733.13;10410413;28;20070;-31
2023/12/19 03:52:14;;;;;;;0.65;0.40;;;;;;;16.83;38.93;97736.53;10395192;28;20131;-30
2023/12/19 03:57:14;;;;;;;2.05;0.35;;;;;;;16.85;39.23;97737.41;10409269;28;20171;-30
2023/12/19 04:02:14;;;;;;;0.50;0.50;;;;;;;16.84;39.24;97733.16;10411533;28;20044;-31
2023/12/19 04:07:15;;;;;;;0.38;0.30;;;;;;;16.86;39.01;97722.28;10413796;28;20037;-30
2023/12/19 04:12:15;;;;;;;0.30;0.30;;;;;;;16.87;39.47;97703.75;10409119;28;20503;-29
2023/12/19 04:17:15;;;;;;;0.77;0.43;;;;;;;16.89;39.05;97711.38;10412685;28;20103;-30
2023/12/19 04:22:16;;;;;;;0.30;0.30;;;;;;;16.86;39.27;97698.63;10397064;28;20514;-30
2023/12/19 04:27:16;;;;;;;0.70;0.30;;;;;;;16.87;38.97;97692.75;10408571;28;20037;-30
2023/12/19 04:32:17;;;;;;;0.50;0.20;;;;;;;16.88;39.18;97697.00;10405498;28;20033;-29
2023/12/19 04:37:17;;;;;;;0.97;0.30;;;;;;;16.89;39.30;97706.31;10411836;28;20441;-30
2023/12/19 04:42:18;;;;;;;0.93;0.57;;;;;;;16.88;39.76;97694.47;10397349;28;20292;-30
2023/12/19 04:47:18;;;;;;;0.85;0.50;;;;;;;16.91;40.61;97695.38;10410389;28;20033;-30
2023/12/19 04:52:19;;;;;;;0.30;0.30;;;;;;;16.87;39.64;97700.34;10400506;28;20474;-31
2023/12/19 04:57:19;;;;;;;0.40;0.30;;;;;;;16.87;39.39;97703.75;10410283;28;21449;-30
2023/12/19 05:02:19;;;;;;;0.70;0.40;;;;;;;16.90;39.65;97696.22;10401978;28;20288;-30
2023/12/19 05:07:20;;;;;;;0.40;0.30;;;;;;;16.90;40.38;97702.97;10409842;28;20059;-30
2023/12/19 05:12:21;;;;;;;0.40;0.30;;;;;;;16.88;39.93;97700.38;10401157;28;20295;-32
2023/12/19 05:17:22;;;;;;;0.28;0.20;;;;;;;16.92;40.21;97698.78;10405766;28;20125;-30
2023/12/19 05:22:22;;;;;;;0.50;0.40;;;;;;;16.93;40.33;97690.38;10408723;28;20029;-30
2023/12/19 05:27:23;;;;;;;0.40;0.38;;;;;;;16.89;40.08;97686.09;10412716;28;20037;-32
2023/12/19 05:32:23;;;;;;;1.47;0.40;;;;;;;16.95;40.72;97681.13;10406272;28;20400;-32
2023/12/19 05:37:24;;;;;;;0.28;0.25;;;;;;;16.93;39.71;97673.53;10406423;28;20402;-31
2023/12/19 05:42:24;;;;;;;0.33;0.30;;;;;;;16.84;39.47;97680.06;10409085;28;20836;-30
2023/12/19 05:47:24;;;;;;;0.50;0.30;;;;;;;16.70;38.66;97683.94;10405838;28;20037;-30
2023/12/19 05:52:25;;;;;;;0.30;0.23;;;;;;;16.66;38.39;97684.72;10406083;28;20048;-30
2023/12/19 05:57:25;;;;;;;2.87;0.80;;;;;;;16.81;40.34;97678.31;10409228;28;20033;-30
2023/12/19 06:02:25;;;;;;;2.30;0.60;;;;;;;16.80;39.55;97668.16;10396928;28;20066;-30
2023/12/19 06:07:28;;;;;;;2.67;0.67;;;;;;;16.87;40.46;97654.81;10399281;28;20288;-30
2023/12/19 06:12:30;;;;;;;1.98;0.73;;;;;;;16.86;41.42;97655.66;10412623;28;20487;-29
2023/12/19 06:17:30;;;;;;;0.80;0.80;;;;;;;16.90;39.58;97647.31;10412039;28;20045;-30
2023/12/19 06:22:31;;;;;;;2.07;1.80;;;;;;;16.81;39.19;97657.25;10406094;28;20037;-31
2023/12/19 06:27:32;;;;;;;12.33;2.57;;;;;;;16.88;40.11;97648.94;10413221;28;20044;-30
2023/12/19 06:32:32;;;;;;;7.75;1.80;;;;;;;16.70;38.46;97643.50;10406205;28;20507;-30
2023/12/19 06:37:36;;;;;;;5.30;1.87;;;;;;;16.67;38.22;97628.28;10404508;28;20136;-30
2023/12/19 06:42:36;;;;;;;4.13;2.08;;;;;;;16.81;37.73;97616.78;10394543;28;20044;-30
2023/12/19 06:47:36;;;;;;;2.83;1.73;;;;;;;16.86;37.73;97625.28;10410190;28;20058;-30
2023/12/19 06:52:37;;;;;;;3.77;1.73;;;;;;;16.85;37.84;97610.94;10413584;28;20296;-30
2023/12/19 06:57:38;;;;;;;2.43;1.77;;;;;;;16.85;38.02;97636.25;10411725;28;20554;-31
2023/12/19 07:02:39;;;;;;;3.00;1.63;;;;;;;16.84;37.83;97647.19;10413803;28;20435;-29
2023/12/19 07:07:39;;;;;;;1.95;1.58;;;;;;;16.82;37.55;97644.59;10403378;28;20507;-31
2023/12/19 07:12:40;;;;;;;1.80;1.47;;;;;;;16.80;37.62;97650.44;10416043;28;20037;-30
2023/12/19 07:17:40;;;;;;;2.28;1.83;;;;;;;16.71;37.52;97634.25;10409732;28;20144;-30
2023/12/19 07:22:41;;;;;;;2.60;1.73;;;;;;;16.77;37.45;97650.41;10406064;28;20037;-32
2023/12/19 07:27:42;;;;;;;2.58;1.67;;;;;;;16.78;37.42;97641.97;10411060;28;20041;-30
2023/12/19 07:32:42;;;;;;;1.95;1.42;;;;;;;16.69;37.81;97626.63;10409692;28;20056;-30
2023/12/19 07:37:43;;;;;;;1.33;1.15;;;;;;;16.76;38.09;97648.69;10406555;28;20436;-30
2023/12/19 07:42:44;;;;;;;1.40;1.30;;;;;;;16.74;37.68;97645.28;10414315;28;20117;-30
2023/12/19 07:47:44;;;;;;;1.33;1.13;;;;;;;16.73;37.64;97652.00;10405908;28;20044;-31
2023/12/19 07:52:45;;;;;;;1.63;1.40;;;;;;;16.75;37.44;97636.88;10417946;28;20037;-30
2023/12/19 07:57:45;;;;;;;1.87;1.10;;;;;;;16.77;37.45;97626.81;10409540;28;20033;-30
2023/12/19 08:02:49;;;;;;;1.75;1.50;;;;;;;16.76;37.45;97615.81;10404834;28;20037;-31
2023/12/19 08:07:50;;;;;;;1.13;1.00;;;;;;;16.74;37.29;97604.81;10404900;28;20453;-30
2023/12/19 08:12:50;;;;;;;1.60;1.27;;;;;;;16.68;37.21;97604.69;10413424;28;20037;-30
2023/12/19 08:17:50;;;;;;;1.70;1.20;;;;;;;16.73;37.70;97615.75;10413020;28;20288;-30
2023/12/19 08:22:51;;;;;;;1.43;1.27;;;;;;;16.71;37.57;97617.38;10403717;28;20042;-30
2023/12/19 08:27:51;;;;;;;1.67;1.37;;;;;;;16.71;37.42;97621.59;10406088;28;20029;-30
2023/12/19 08:32:51;;;;;;;1.30;0.93;;;;;;;16.71;37.73;97635.09;10408570;28;20345;-30
2023/12/19 08:37:52;;;;;;;1.00;0.90;;;;;;;16.65;37.61;97618.94;10403560;28;20108;-31
2023/12/19 08:42:56;;;;;;;1.60;1.02;;;;;;;16.67;37.64;97633.31;10402619;28;20087;-30
2023/12/19 08:47:56;;;;;;;1.55;1.33;;;;;;;16.66;37.58;97626.56;10403994;28;20476;-30
2023/12/19 08:52:57;;;;;;;1.47;1.20;;;;;;;16.68;37.43;97599.63;10404618;28;20051;-31
2023/12/19 08:57:57;;;;;;;1.30;1.00;;;;;;;16.67;37.42;97581.06;10402712;28;20033;-32
2023/12/19 09:02:57;;;;;;;1.35;1.00;;;;;;;16.68;37.34;97584.47;10410038;28;20037;-30
2023/12/19 09:07:58;;;;;;;1.07;0.80;;;;;;;16.69;37.37;97588.69;10404744;28;20038;-30
2023/12/19 09:12:59;;;;;;;1.03;0.90;;;;;;;16.67;37.78;97562.53;10406300;28;20373;-30
2023/12/19 09:17:59;;;;;;;1.30;0.95;;;;;;;16.66;37.38;97563.34;10407998;28;20290;-30
2023/12/19 09:23:00;;;;;;;1.50;0.90;;;;;;;16.67;37.32;97562.53;10401436;28;20037;-30
2023/12/19 09:28:02;;;;;;;3.08;1.35;;;;;;;16.68;37.34;97571.81;10404446;28;20419;-30
2023/12/19 09:33:02;;;;;;;1.48;0.93;;;;;;;16.66;37.36;97567.53;10403407;28;20431;-30
2023/12/19 09:38:04;;;;;;;1.40;0.90;;;;;;;16.64;37.24;97572.59;10400617;28;20102;-30
2023/12/19 09:43:04;;;;;;;1.33;0.85;;;;;;;16.64;36.97;97559.09;10404706;28;20036;-30
2023/12/19 09:48:06;;;;;;;1.30;1.00;;;;;;;16.55;37.49;97539.50;10403142;28;20048;-31
2023/12/19 09:53:09;;;;;;;3.28;1.80;;;;;;;16.64;37.34;97557.44;10401025;28;20342;-30
2023/12/19 09:58:12;;;;;;;1.25;0.85;;;;;;;16.64;37.35;97536.34;10405216;28;20056;-30
2023/12/19 10:03:13;;;;;;;1.73;0.90;;;;;;;16.65;37.51;97523.72;10398600;28;21445;-30
2023/12/19 10:08:16;;;;;;;1.52;1.20;;;;;;;16.65;37.15;97513.63;10399253;28;20041;-30
2023/12/19 10:13:25;;;;;;;2.45;1.20;;;;;;;16.62;37.54;97511.00;10403575;28;20034;-30
2023/12/19 10:18:26;;;;;;;1.02;0.70;;;;;;;16.64;37.53;97501.81;10406424;28;20037;-30
2023/12/19 10:23:26;;;;;;;1.90;1.10;;;;;;;16.63;37.41;97491.66;10398931;28;20917;-31
2023/12/19 10:28:27;;;;;;;1.77;0.80;;;;;;;16.62;37.43;97478.16;10400404;28;20048;-30
2023/12/19 10:33:27;;;;;;;1.67;1.10;;;;;;;16.62;37.60;97480.66;10404182;28;20037;-31
2023/12/19 10:38:27;;;;;;;3.03;1.17;;;;;;;16.67;37.44;97485.00;10400153;28;20025;-33
2023/12/19 10:43:38;;;;;;;2.07;1.20;;;;;;;16.69;37.31;97487.56;10408366;28;20097;-30
2023/12/19 10:48:38;;;;;;;4.40;1.20;;;;;;;16.72;37.55;97495.22;10406361;28;20350;-29
2023/12/19 10:53:47;;;;;;;1.30;0.93;;;;;;;16.75;37.33;97495.28;10403081;28;20555;-30
2023/12/19 10:58:52;;;;;;;1.30;0.80;;;;;;;16.76;37.61;97489.38;10403933;28;20037;-29
2023/12/19 11:03:59;;;;;;;1.15;0.75;;;;;;;16.79;37.36;97481.84;10404572;28;20123;-30
2023/12/19 11:09:05;;;;;;;1.33;1.08;;;;;;;16.80;37.46;97496.19;10400956;28;20053;-30
2023/12/19 11:14:05;;;;;;;2.22;0.80;;;;;;;16.80;37.25;97483.53;10404218;28;20029;-30
2023/12/19 11:19:15;;;;;;;1.10;0.90;;;;;;;16.83;37.71;97481.09;10404174;28;20639;-30
2023/12/19 11:24:21;;;;;;;2.38;0.82;;;;;;;16.87;37.66;97475.25;10399046;28;20111;-30
2023/12/19 11:29:50;;;;;;;1.60;0.98;;;;;;;16.92;37.87;97455.97;10406527;28;20033;-30
2023/12/19 11:34:50;;;;;;;2.58;1.38;;;;;;;16.94;37.51;97421.44;10406469;28;20099;-30
2023/12/19 11:39:51;;;;;;;1.40;0.90;;;;;;;16.96;37.80;97414.72;10408555;28;20119;-30
2023/12/19 11:44:51;;;;;;;2.57;1.10;;;;;;;16.94;37.71;97408.78;10401660;28;20033;-30
2023/12/19 11:49:51;;;;;;;1.03;0.93;;;;;;;16.82;38.12;97361.38;10408837;28;20044;-31
2023/12/19 11:54:52;;;;;;;1.37;1.00;;;;;;;16.98;37.93;97367.56;10411172;28;20189;-31
2023/12/19 11:59:54;;;;;;;5.03;1.20;;;;;;;16.98;37.70;97357.44;10406557;28;20068;-30
2023/12/19 12:05:05;;;;;;;1.40;1.17;;;;;;;16.99;37.85;97349.00;10406293;28;20045;-30
2023/12/19 12:10:06;;;;;;;1.02;0.90;;;;;;;16.99;37.89;97354.06;10407672;28;20148;-31
2023/12/19 12:15:14;;;;;;;1.95;1.23;;;;;;;16.99;38.25;97349.84;10407821;28;20124;-30
2023/12/19 12:20:14;;;;;;;1.05;0.90;;;;;;;16.93;38.62;97339.66;10398410;28;20084;-30
2023/12/19 12:25:16;;;;;;;1.90;1.17;;;;;;;17.00;38.03;97328.78;10408518;28;20059;-29
2023/12/19 12:30:16;;;;;;;4.38;0.98;;;;;;;17.05;38.32;97313.66;10401725;28;20065;-31
2023/12/19 12:35:30;;;;;;;3.17;1.37;;;;;;;17.07;38.86;97301.91;10402521;28;20137;-32
2023/12/19 12:40:31;;;;;;;2.03;1.27;;;;;;;17.07;38.87;97285.03;10408559;28;20029;-30
2023/12/19 12:45:31;;;;;;;2.78;1.02;;;;;;;17.07;38.88;97281.69;10402001;28;20094;-34
2023/12/19 12:50:32;;;;;;;1.20;1.00;;;;;;;17.08;38.85;97280.84;10404411;28;20463;-30
2023/12/19 12:55:34;;;;;;;1.40;1.00;;;;;;;17.09;38.93;97275.78;10407740;28;20049;-30
2023/12/19 13:00:35;;;;;;;2.28;1.00;;;;;;;17.11;38.99;97281.75;10402218;28;20033;-29
2023/12/19 13:05:35;;;;;;;2.75;0.90;;;;;;;17.11;39.07;97258.13;10400499;28;20033;-30
2023/12/19 13:10:36;;;;;;;1.80;1.13;;;;;;;17.11;39.28;97242.94;10406352;28;20041;-31
2023/12/19 13:15:36;;;;;;;1.52;1.30;;;;;;;17.09;38.98;97245.44;10393363;28;20033;-30
2023/12/19 13:20:37;;;;;;;1.20;0.83;;;;;;;17.08;39.15;97232.78;10395195;28;20030;-31
2023/12/19 13:25:40;;;;;;;1.15;0.95;;;;;;;17.07;39.30;97219.28;10403376;28;20040;-32
2023/12/19 13:30:41;;;;;;;0.73;0.73;;;;;;;17.08;39.80;97222.66;10400759;28;20480;-33
2023/12/19 13:35:42;;;;;;;1.92;1.40;;;;;;;17.06;40.22;97234.44;10403153;28;20057;-31
2023/12/19 13:40:43;;;;;;;1.40;1.20;;;;;;;17.07;39.49;97229.38;10411513;28;20049;-30
2023/12/19 13:45:43;;;;;;;5.18;2.15;;;;;;;17.05;39.11;97231.06;10404267;28;20423;-37
2023/12/19 13:50:45;;;;;;;2.23;1.27;;;;;;;17.07;39.43;97236.16;10402028;28;20030;-30
2023/12/19 13:55:45;;;;;;;5.97;1.75;;;;;;;17.07;39.24;97236.16;10404945;28;20777;-31
2023/12/19 14:00:46;;;;;;;12.67;4.73;;;;;;;17.12;40.22;97224.38;10402518;28;20033;-31
2023/12/19 14:05:46;;;;;;;22.42;12.13;;;;;;;17.11;41.55;97213.44;10397096;28;20402;-30
2023/12/19 14:10:48;;;;;;;10.23;4.63;;;;;;;17.09;39.87;97215.06;10404487;28;20042;-32
2023/12/19 14:15:53;;;;;;;10.57;5.32;;;;;;;17.10;39.56;97215.94;10397876;28;20072;-30
2023/12/19 14:20:53;;;;;;;7.35;4.30;;;;;;;17.10;39.94;97203.28;10396426;28;20419;-30
2023/12/19 14:25:54;;;;;;;26.58;7.55;;;;;;;17.10;41.46;97201.63;10404656;28;20033;-30
2023/12/19 14:30:54;;;;;;;6.90;4.47;;;;;;;17.11;39.65;97207.50;10396404;28;20033;-30
2023/12/19 14:35:55;;;;;;;6.10;3.63;;;;;;;17.11;39.71;97215.09;10397107;28;20456;-30
2023/12/19 14:40:55;;;;;;;14.73;5.38;;;;;;;17.10;41.06;97213.41;10415295;28;20040;-31
2023/12/19 14:45:55;;;;;;;10.03;3.60;;;;;;;17.09;40.36;97188.94;10415088;28;20043;-30
2023/12/19 14:50:56;;;;;;;16.27;3.97;;;;;;;17.11;39.75;97179.69;10396015;28;20033;-30
2023/12/19 14:55:56;;;;;;;7.30;2.30;;;;;;;17.11;39.68;97169.56;10400389;28;20459;-30
2023/12/19 15:00:56;;;;;;;10.17;3.47;;;;;;;17.13;39.74;97178.00;10403533;28;20022;-30
2023/12/19 15:05:57;;;;;;;4.57;2.83;;;;;;;17.12;39.54;97178.84;10408356;28;20036;-30
2023/12/19 15:10:57;;;;;;;5.40;2.75;;;;;;;17.09;39.81;97172.06;10411187;28;20033;-30
2023/12/19 15:16:00;;;;;;;6.80;3.13;;;;;;;17.04;39.89;97167.78;10413052;28;20091;-30
2023/12/19 15:21:01;;;;;;;4.85;2.67;;;;;;;17.04;39.66;97137.44;10417555;28;20522;-29
2023/12/19 15:26:02;;;;;;;5.20;2.35;;;;;;;17.10;39.32;97155.22;10421347;28;20037;-30
2023/12/19 15:31:02;;;;;;;6.00;2.60;;;;;;;17.10;39.22;97162.81;10406568;28;20037;-30
2023/12/19 15:36:03;;;;;;;6.80;2.63;;;;;;;17.08;39.18;97154.38;10409372;28;20800;-29
2023/12/19 15:41:07;;;;;;;3.92;2.42;;;;;;;17.06;40.23;97159.38;10430385;28;20480;-30
2023/12/19 15:46:13;;;;;;;5.75;2.20;;;;;;;17.04;39.18;97150.94;10414686;28;20721;-30
2023/12/19 15:51:22;;;;;;;8.80;3.08;;;;;;;17.04;39.24;97155.13;10407814;28;20039;-29
2023/12/19 15:56:28;;;;;;;9.30;3.30;;;;;;;17.03;39.06;97166.09;10403299;28;20053;-29
2023/12/19 16:01:29;;;;;;;4.45;1.95;;;;;;;17.01;38.89;97180.41;10405074;28;20116;-30
2023/12/19 16:06:29;;;;;;;5.30;2.00;;;;;;;17.02;39.03;97169.44;10406796;28;20051;-30
2023/12/19 16:11:29;;;;;;;12.20;2.47;;;;;;;16.96;38.74;97189.59;10409074;28;20484;-30
2023/12/19 16:16:35;;;;;;;8.83;2.30;;;;;;;16.99;38.46;97172.78;10406664;28;20408;-30
2023/12/19 16:21:35;;;;;;;4.82;1.75;;;;;;;17.02;38.31;97164.41;10407422;28;20291;-31
2023/12/19 16:26:35;;;;;;;7.27;1.83;;;;;;;16.97;39.12;97163.47;10425598;28;20503;-32
2023/12/19 16:31:39;;;;;;;3.57;1.60;;;;;;;17.03;38.89;97164.44;10416161;28;20235;-31
2023/12/19 16:36:44;;;;;;;4.45;1.50;;;;;;;17.05;38.68;97172.88;10408458;28;20057;-30
2023/12/19 16:41:44;;;;;;;5.00;1.55;;;;;;;17.01;38.51;97168.63;10408074;28;20112;-30
2023/12/19 16:46:44;;;;;;;5.17;1.33;;;;;;;17.04;38.41;97162.72;10405970;28;20033;-30
2023/12/19 16:51:45;;;;;;;2.17;1.20;;;;;;;17.03;38.57;97155.97;10405726;28;20284;-30
2023/12/19 16:56:46;;;;;;;2.63;1.42;;;;;;;17.01;38.50;97158.50;10419672;28;20038;-30
2023/12/19 17:01:48;;;;;;;3.78;2.03;;;;;;;16.99;38.74;97150.03;10413248;28;20029;-30
2023/12/19 17:06:52;;;;;;;3.78;1.73;;;;;;;17.00;38.35;97148.34;10403865;28;20491;-31
2023/12/19 17:11:53;;;;;;;6.25;1.70;;;;;;;16.97;38.05;97135.66;10404548;28;20040;-30
2023/12/19 17:16:53;;;;;;;2.10;1.13;;;;;;;16.99;38.31;97132.31;10403175;28;20029;-30
2023/12/19 17:21:53;;;;;;;3.47;1.47;;;;;;;16.94;37.94;97128.91;10398155;28;20053;-30
2023/12/19 17:26:54;;;;;;;6.27;1.60;;;;;;;16.97;38.59;97123.00;10401777;28;20522;-30
2023/12/19 17:31:54;;;;;;;1.53;1.37;;;;;;;16.94;38.22;97128.91;10403720;28;20029;-30
2023/12/19 17:36:54;;;;;;;3.23;1.20;;;;;;;16.92;38.01;97119.59;10409379;28;20025;-30
2023/12/19 17:41:55;;;;;;;1.30;1.13;;;;;;;16.92;38.08;97129.72;10410991;28;20029;-30
2023/12/19 17:46:55;;;;;;;3.30;1.48;;;;;;;16.97;37.69;97133.13;10402353;28;20056;-30
2023/12/19 17:51:56;;;;;;;4.37;1.43;;;;;;;16.98;37.48;97144.97;10406073;28;20041;-30
2023/12/19 17:56:57;;;;;;;1.70;1.40;;;;;;;17.01;37.69;97134.88;10411183;28;20329;-30
2023/12/19 18:01:58;;;;;;;3.53;1.67;;;;;;;16.90;37.70;97118.72;10408424;28;20196;-29
2023/12/19 18:06:59;;;;;;;2.25;1.42;;;;;;;16.83;37.81;97116.94;10402058;28;20108;-30
2023/12/19 18:11:59;;;;;;;1.50;1.38;;;;;;;16.89;37.15;97099.34;10409118;28;20037;-29
2023/12/19 18:17:03;;;;;;;2.58;1.63;;;;;;;16.89;37.42;97084.16;10402626;28;20040;-30
2023/12/19 18:22:03;;;;;;;1.73;1.30;;;;;;;16.93;37.12;97076.63;10406996;28;20033;-30
2023/12/19 18:27:04;;;;;;;1.52;1.10;;;;;;;16.95;37.62;97069.91;10410070;28;20033;-32
2023/12/19 18:32:05;;;;;;;2.55;1.08;;;;;;;16.97;37.66;97080.00;10406757;28;20041;-29
2023/12/19 18:37:05;;;;;;;2.05;1.80;;;;;;;16.95;37.34;97063.97;10408272;28;20052;-28
2023/12/19 18:42:06;;;;;;;2.13;1.60;;;;;;;16.97;37.15;97059.78;10412695;28;20034;-29
2023/12/19 18:47:07;;;;;;;2.60;1.73;;;;;;;16.86;37.30;97062.22;10426043;28;20047;-29
2023/12/19 18:52:08;;;;;;;4.20;1.88;;;;;;;16.94;37.26;97052.16;10414022;28;20484;-29
2023/12/19 18:57:08;;;;;;;4.03;2.23;;;;;;;16.92;37.22;97058.91;10420130;28;20041;-29
2023/12/19 19:02:09;;;;;;;7.87;3.10;;;;;;;16.90;37.35;97075.75;10408925;28;20053;-31
2023/12/19 19:07:09;;;;;;;3.95;2.67;;;;;;;16.89;37.30;97069.00;10417378;28;20055;-28
2023/12/19 19:12:10;;;;;;;5.82;3.15;;;;;;;16.91;37.48;97073.19;10421301;28;20119;-29
2023/12/19 19:17:11;;;;;;;4.57;2.28;;;;;;;16.95;37.61;97081.69;10413220;28;20055;-29
2023/12/19 19:22:12;;;;;;;3.92;2.63;;;;;;;16.89;37.49;97084.16;10405602;28;20124;-29
2023/12/19 19:27:13;;;;;;;3.07;2.27;;;;;;;16.95;37.39;97094.31;10407270;28;20040;-29
2023/12/19 19:32:14;;;;;;;4.18;2.58;;;;;;;16.93;37.24;97103.59;10402578;28;20705;-30
2023/12/19 19:37:15;;;;;;;3.55;2.20;;;;;;;16.95;37.16;97104.44;10403424;28;20037;-29
2023/12/19 19:42:16;;;;;;;2.33;1.80;;;;;;;16.96;37.42;97090.97;10410772;28;20048;-29
2023/12/19 19:47:16;;;;;;;3.97;2.47;;;;;;;16.90;37.19;97085.84;10405089;28;20044;-30
2023/12/19 19:52:17;;;;;;;2.20;1.50;;;;;;;16.94;37.57;97088.44;10404324;28;20053;-29
2023/12/19 19:57:17;;;;;;;2.40;1.83;;;;;;;16.96;37.26;97099.41;10413794;28;20047;-30
2023/12/19 20:02:17;;;;;;;4.63;2.05;;;;;;;16.92;38.47;97095.13;10403137;28;20033;-29
2023/12/19 20:07:18;;;;;;;3.40;1.63;;;;;;;16.98;38.01;97094.38;10405072;28;20037;-29
2023/12/19 20:12:19;;;;;;;3.03;1.60;;;;;;;17.06;38.75;97077.63;10405352;28;20033;-30
2023/12/19 20:17:21;;;;;;;6.75;1.80;;;;;;;17.10;39.61;97059.09;10405832;28;20288;-29
2023/12/19 20:22:22;;;;;;;4.65;2.03;;;;;;;17.13;39.91;97061.63;10402489;28;20029;-29
2023/12/19 20:27:22;;;;;;;4.35;1.85;;;;;;;17.17;39.71;97061.69;10401210;28;20030;-29
2023/12/19 20:32:23;;;;;;;2.22;1.40;;;;;;;17.17;40.30;97058.31;10403904;28;20026;-29
2023/12/19 20:37:23;;;;;;;3.30;1.50;;;;;;;17.16;40.08;97038.94;10406030;28;20078;-29
2023/12/19 20:42:23;;;;;;;3.42;1.83;;;;;;;17.16;40.38;97054.09;10412188;28;20049;-30
2023/12/19 20:47:24;;;;;;;5.07;2.63;;;;;;;17.15;41.41;97043.13;10405071;28;20025;-28
2023/12/19 20:52:24;;;;;;;4.80;2.43;;;;;;;17.18;46.01;97049.91;10399038;28;20083;-29
2023/12/19 20:57:26;;;;;;;3.53;1.93;;;;;;;17.18;43.05;97044.84;10405855;28;20331;-29
2023/12/19 21:02:26;;;;;;;3.75;2.47;;;;;;;17.18;41.34;97049.91;10403187;28;20091;-29
2023/12/19 21:07:27;;;;;;;4.50;1.70;;;;;;;17.07;41.57;97019.44;10400741;28;20714;-29
2023/12/19 21:12:27;;;;;;;2.55;1.80;;;;;;;17.20;41.02;97036.44;10408892;28;20306;-29
2023/12/19 21:17:29;;;;;;;3.58;1.98;;;;;;;17.22;41.66;97026.31;10403011;28;20037;-29
2023/12/19 21:22:29;;;;;;;3.58;1.80;;;;;;;17.21;41.32;97012.84;10404026;28;20082;-29
2023/12/19 21:27:30;;;;;;;2.13;1.60;;;;;;;17.21;41.79;97002.72;10405907;28;20470;-29
2023/12/19 21:32:30;;;;;;;4.68;2.40;;;;;;;17.24;46.14;96994.31;10400560;28;20291;-29
2023/12/19 21:37:31;;;;;;;8.60;2.55;;;;;;;17.17;48.77;96977.38;10400638;28;20637;-29
2023/12/19 21:42:31;;;;;;;8.20;1.97;;;;;;;17.19;48.48;96968.09;10401582;28;20037;-29
2023/12/19 21:47:31;;;;;;;4.82;1.90;;;;;;;17.16;43.19;96963.03;10403454;28;20283;-30
2023/12/19 21:52:32;;;;;;;6.53;2.03;;;;;;;17.16;43.22;96952.91;10401425;28;20034;-29
2023/12/19 21:57:32;;;;;;;3.03;1.67;;;;;;;17.19;42.48;96927.63;10403476;28;21407;-30
2023/12/19 22:02:33;;;;;;;3.63;1.77;;;;;;;17.17;42.23;96927.59;10400272;28;20036;-30
2023/12/19 22:07:33;;;;;;;1.97;1.40;;;;;;;17.15;42.27;96895.56;10400188;28;20383;-29
2023/12/19 22:12:36;;;;;;;2.30;1.40;;;;;;;17.15;42.13;96867.72;10405243;28;20038;-30
2023/12/19 22:17:36;;;;;;;3.88;1.63;;;;;;;17.15;42.19;96880.38;10407871;28;20095;-29
2023/12/19 22:22:36;;;;;;;1.83;1.43;;;;;;;17.14;41.88;96853.41;10399294;28;20037;-30
2023/12/19 22:27:37;;;;;;;1.70;1.20;;;;;;;17.13;41.65;96872.78;10410550;28;20033;-29
2023/12/19 22:32:37;;;;;;;2.17;1.33;;;;;;;17.14;41.52;96879.53;10405353;28;20412;-29
2023/12/19 22:37:37;;;;;;;1.67;1.20;;;;;;;17.13;42.06;96887.09;10398325;28;20037;-31
2023/12/19 22:42:38;;;;;;;2.83;1.30;;;;;;;17.14;41.79;96898.94;10404309;28;20040;-31
2023/12/19 22:47:38;;;;;;;2.23;1.20;;;;;;;17.13;42.06;96903.13;10407741;28;20442;-29
2023/12/19 22:52:38;;;;;;;4.50;1.93;;;;;;;17.12;42.67;96886.25;10403255;28;20033;-30
2023/12/19 22:57:39;;;;;;;4.13;1.63;;;;;;;17.11;42.30;96871.91;10406654;28;20426;-29
2023/12/19 23:02:39;;;;;;;2.37;1.57;;;;;;;17.12;42.30;96860.09;10400709;28;20411;-29
2023/12/19 23:07:40;;;;;;;2.13;1.57;;;;;;;17.13;42.18;96866.84;10396827;28;20509;-29
2023/12/19 23:12:40;;;;;;;1.73;1.13;;;;;;;17.12;42.02;96865.16;10403706;28;20532;-29
2023/12/19 23:17:40;;;;;;;1.55;1.23;;;;;;;17.11;42.14;96855.88;10403597;28;20120;-30